sensor_id;sensor_type;location;lat;lon;timestamp;P1;durP1;ratioP1;P2;durP2;ratioP2
39860;SDS011;25529;49.346;20.886;2022-07-10T11:20:39;67.78;;;40.47;;
39860;SDS011;25529;49.346;20.886;2022-07-10T11:25:48;30.75;;;14.65;;
39860;SDS011;25529;49.346;20.886;2022-07-10T11:28:41;25.63;;;10.50;;
39860;SDS011;25529;49.346;20.886;2022-07-10T11:31:09;16.23;;;5.90;;
39860;SDS011;25529;49.346;20.886;2022-07-10T11:33:41;20.73;;;8.75;;
39860;SDS011;25529;49.346;20.886;2022-07-10T11:36:09;22.38;;;8.80;;
39860;SDS011;25529;49.346;20.886;2022-07-10T11:38:35;30.13;;;16.45;;
39860;SDS011;25529;49.346;20.886;2022-07-10T11:41:01;29.05;;;15.63;;
39860;SDS011;25529;49.346;20.886;2022-07-10T11:43:26;23.00;;;10.38;;
39860;SDS011;25529;49.346;20.886;2022-07-10T11:45:52;22.25;;;9.75;;
39860;SDS011;25529;49.346;20.886;2022-07-10T11:48:24;18.00;;;6.87;;
39860;SDS011;25529;49.346;20.886;2022-07-10T11:50:51;16.45;;;6.25;;
39860;SDS011;25529;49.346;20.886;2022-07-10T11:53:23;22.00;;;9.93;;
39860;SDS011;25529;49.346;20.886;2022-07-10T11:55:49;16.15;;;6.13;;
39860;SDS011;25529;49.346;20.886;2022-07-10T11:58:15;12.07;;;5.38;;
39860;SDS011;25529;49.346;20.886;2022-07-10T12:00:41;10.98;;;4.70;;
39860;SDS011;25529;49.346;20.886;2022-07-10T12:03:22;9.93;;;4.22;;
39860;SDS011;25529;49.346;20.886;2022-07-10T12:05:48;8.80;;;4.20;;
39860;SDS011;25529;49.346;20.886;2022-07-10T12:08:16;9.30;;;3.72;;
39860;SDS011;25529;49.346;20.886;2022-07-10T12:10:47;8.48;;;3.97;;
39860;SDS011;25529;49.346;20.886;2022-07-10T12:13:14;8.07;;;4.07;;
39860;SDS011;25529;49.346;20.886;2022-07-10T12:15:41;12.00;;;4.38;;
39860;SDS011;25529;49.346;20.886;2022-07-10T12:18:30;10.75;;;4.40;;
39860;SDS011;25529;49.346;20.886;2022-07-10T12:20:58;13.55;;;4.72;;
39860;SDS011;25529;49.346;20.886;2022-07-10T12:23:27;8.38;;;3.92;;
39860;SDS011;25529;49.346;20.886;2022-07-10T12:28:55;11.90;;;4.20;;
39860;SDS011;25529;49.346;20.886;2022-07-10T12:31:28;10.88;;;4.22;;
39860;SDS011;25529;49.346;20.886;2022-07-10T12:34:00;10.75;;;4.18;;
39860;SDS011;25529;49.346;20.886;2022-07-10T12:36:41;10.47;;;3.90;;
39860;SDS011;25529;49.346;20.886;2022-07-10T12:39:10;9.90;;;4.07;;
39860;SDS011;25529;49.346;20.886;2022-07-10T12:41:52;10.48;;;4.57;;
39860;SDS011;25529;49.346;20.886;2022-07-10T12:47:28;9.63;;;3.85;;
39860;SDS011;25529;49.346;20.886;2022-07-10T12:52:26;9.90;;;4.30;;
39860;SDS011;25529;49.346;20.886;2022-07-10T12:55:11;15.38;;;4.43;;
39860;SDS011;25529;49.346;20.886;2022-07-10T13:00:21;9.07;;;3.80;;
39860;SDS011;25529;49.346;20.886;2022-07-10T13:02:48;8.55;;;4.00;;
39860;SDS011;25529;49.346;20.886;2022-07-10T13:08:20;7.20;;;3.70;;
39860;SDS011;25529;49.346;20.886;2022-07-10T13:10:51;8.65;;;3.83;;
39860;SDS011;25529;49.346;20.886;2022-07-10T13:13:17;12.40;;;3.92;;
39860;SDS011;25529;49.346;20.886;2022-07-10T13:15:43;9.43;;;3.78;;
39860;SDS011;25529;49.346;20.886;2022-07-10T13:20:43;11.18;;;3.70;;
39860;SDS011;25529;49.346;20.886;2022-07-10T13:23:08;9.15;;;3.70;;
39860;SDS011;25529;49.346;20.886;2022-07-10T13:25:33;8.57;;;3.65;;
39860;SDS011;25529;49.346;20.886;2022-07-10T13:28:12;11.98;;;4.30;;
39860;SDS011;25529;49.346;20.886;2022-07-10T13:30:38;12.10;;;4.28;;
39860;SDS011;25529;49.346;20.886;2022-07-10T13:33:10;11.45;;;4.03;;
39860;SDS011;25529;49.346;20.886;2022-07-10T13:35:36;8.05;;;3.60;;
39860;SDS011;25529;49.346;20.886;2022-07-10T13:38:05;9.35;;;3.90;;
39860;SDS011;25529;49.346;20.886;2022-07-10T13:40:32;10.00;;;4.00;;
39860;SDS011;25529;49.346;20.886;2022-07-10T13:42:58;13.63;;;4.30;;
39860;SDS011;25529;49.346;20.886;2022-07-10T13:45:26;13.10;;;5.07;;
39860;SDS011;25529;49.346;20.886;2022-07-10T13:47:55;20.15;;;6.25;;
39860;SDS011;25529;49.346;20.886;2022-07-10T13:50:21;14.43;;;5.93;;
39860;SDS011;25529;49.346;20.886;2022-07-10T13:52:47;13.05;;;4.82;;
39860;SDS011;25529;49.346;20.886;2022-07-10T13:55:13;8.50;;;4.40;;
39860;SDS011;25529;49.346;20.886;2022-07-10T13:57:41;13.80;;;5.68;;
39860;SDS011;25529;49.346;20.886;2022-07-10T14:00:07;17.98;;;5.88;;
39860;SDS011;25529;49.346;20.886;2022-07-10T14:02:39;38.30;;;21.77;;
39860;SDS011;25529;49.346;20.886;2022-07-10T14:05:08;23.40;;;9.05;;
39860;SDS011;25529;49.346;20.886;2022-07-10T14:07:33;23.02;;;9.00;;
39860;SDS011;25529;49.346;20.886;2022-07-10T14:09:59;19.20;;;7.10;;
39860;SDS011;25529;49.346;20.886;2022-07-10T14:12:24;18.92;;;6.78;;
39860;SDS011;25529;49.346;20.886;2022-07-10T14:14:49;16.80;;;5.40;;
39860;SDS011;25529;49.346;20.886;2022-07-10T14:17:15;18.75;;;5.97;;
39860;SDS011;25529;49.346;20.886;2022-07-10T14:19:40;26.52;;;12.07;;
39860;SDS011;25529;49.346;20.886;2022-07-10T14:22:06;27.52;;;10.30;;
39860;SDS011;25529;49.346;20.886;2022-07-10T14:24:31;18.67;;;6.78;;
39860;SDS011;25529;49.346;20.886;2022-07-10T14:26:57;15.65;;;6.05;;
39860;SDS011;25529;49.346;20.886;2022-07-10T14:29:23;18.85;;;6.95;;
39860;SDS011;25529;49.346;20.886;2022-07-10T14:31:48;17.95;;;5.55;;
39860;SDS011;25529;49.346;20.886;2022-07-10T14:34:23;14.88;;;5.15;;
39860;SDS011;25529;49.346;20.886;2022-07-10T14:37:07;13.68;;;4.45;;
39860;SDS011;25529;49.346;20.886;2022-07-10T14:39:36;9.95;;;4.00;;
39860;SDS011;25529;49.346;20.886;2022-07-10T14:42:02;15.70;;;4.60;;
39860;SDS011;25529;49.346;20.886;2022-07-10T14:44:30;10.35;;;4.03;;
39860;SDS011;25529;49.346;20.886;2022-07-10T14:46:55;10.30;;;3.92;;
39860;SDS011;25529;49.346;20.886;2022-07-10T14:49:20;15.25;;;4.20;;
39860;SDS011;25529;49.346;20.886;2022-07-10T14:51:46;14.13;;;5.07;;
39860;SDS011;25529;49.346;20.886;2022-07-10T14:54:11;8.23;;;3.33;;
39860;SDS011;25529;49.346;20.886;2022-07-10T14:56:36;11.77;;;3.80;;
39860;SDS011;25529;49.346;20.886;2022-07-10T14:59:02;10.88;;;4.40;;
39860;SDS011;25529;49.346;20.886;2022-07-10T15:01:27;9.70;;;3.90;;
39860;SDS011;25529;49.346;20.886;2022-07-10T15:03:54;15.55;;;3.97;;
39860;SDS011;25529;49.346;20.886;2022-07-10T15:06:20;10.38;;;4.00;;
39860;SDS011;25529;49.346;20.886;2022-07-10T15:08:48;8.40;;;3.30;;
39860;SDS011;25529;49.346;20.886;2022-07-10T15:11:17;14.20;;;3.60;;
39860;SDS011;25529;49.346;20.886;2022-07-10T15:13:46;9.27;;;3.53;;
39860;SDS011;25529;49.346;20.886;2022-07-10T15:16:11;8.23;;;3.70;;
39860;SDS011;25529;49.346;20.886;2022-07-10T15:18:37;8.05;;;3.42;;
39860;SDS011;25529;49.346;20.886;2022-07-10T15:21:02;9.43;;;3.63;;
39860;SDS011;25529;49.346;20.886;2022-07-10T15:23:28;9.35;;;3.65;;
39860;SDS011;25529;49.346;20.886;2022-07-10T15:25:53;10.57;;;3.40;;
39860;SDS011;25529;49.346;20.886;2022-07-10T15:28:19;8.90;;;3.63;;
39860;SDS011;25529;49.346;20.886;2022-07-10T15:30:44;16.90;;;4.90;;
39860;SDS011;25529;49.346;20.886;2022-07-10T15:33:10;12.90;;;4.38;;
39860;SDS011;25529;49.346;20.886;2022-07-10T15:35:35;15.88;;;4.93;;
39860;SDS011;25529;49.346;20.886;2022-07-10T15:38:00;11.32;;;3.92;;
39860;SDS011;25529;49.346;20.886;2022-07-10T15:40:26;7.25;;;3.80;;
39860;SDS011;25529;49.346;20.886;2022-07-10T15:42:52;11.00;;;4.18;;
39860;SDS011;25529;49.346;20.886;2022-07-10T15:45:18;13.00;;;4.00;;
39860;SDS011;25529;49.346;20.886;2022-07-10T15:47:43;13.38;;;4.30;;
39860;SDS011;25529;49.346;20.886;2022-07-10T15:50:09;10.65;;;3.72;;
39860;SDS011;25529;49.346;20.886;2022-07-10T15:52:34;9.13;;;3.42;;
39860;SDS011;25529;49.346;20.886;2022-07-10T15:54:59;9.40;;;3.30;;
39860;SDS011;25529;49.346;20.886;2022-07-10T15:57:24;8.80;;;3.20;;
39860;SDS011;25529;49.346;20.886;2022-07-10T15:59:50;6.35;;;3.15;;
39860;SDS011;25529;49.346;20.886;2022-07-10T16:02:16;9.30;;;3.80;;
39860;SDS011;25529;49.346;20.886;2022-07-10T16:04:41;13.77;;;4.55;;
39860;SDS011;25529;49.346;20.886;2022-07-10T16:07:07;14.45;;;4.95;;
39860;SDS011;25529;49.346;20.886;2022-07-10T16:09:34;13.57;;;4.13;;
39860;SDS011;25529;49.346;20.886;2022-07-10T16:12:00;11.27;;;3.95;;
39860;SDS011;25529;49.346;20.886;2022-07-10T16:14:26;13.98;;;3.95;;
39860;SDS011;25529;49.346;20.886;2022-07-10T16:16:51;14.25;;;3.85;;
39860;SDS011;25529;49.346;20.886;2022-07-10T16:19:20;11.95;;;4.40;;
39860;SDS011;25529;49.346;20.886;2022-07-10T16:21:45;6.95;;;3.58;;
39860;SDS011;25529;49.346;20.886;2022-07-10T16:24:11;10.55;;;3.35;;
39860;SDS011;25529;49.346;20.886;2022-07-10T16:26:37;7.53;;;3.20;;
39860;SDS011;25529;49.346;20.886;2022-07-10T16:29:06;11.75;;;4.00;;
39860;SDS011;25529;49.346;20.886;2022-07-10T16:31:32;11.25;;;3.95;;
39860;SDS011;25529;49.346;20.886;2022-07-10T16:33:58;13.65;;;4.40;;
39860;SDS011;25529;49.346;20.886;2022-07-10T16:36:24;12.32;;;3.90;;
39860;SDS011;25529;49.346;20.886;2022-07-10T16:38:50;11.57;;;3.67;;
39860;SDS011;25529;49.346;20.886;2022-07-10T16:41:17;8.88;;;3.80;;
39860;SDS011;25529;49.346;20.886;2022-07-10T16:43:46;10.18;;;3.65;;
39860;SDS011;25529;49.346;20.886;2022-07-10T16:46:11;9.90;;;4.13;;
39860;SDS011;25529;49.346;20.886;2022-07-10T16:48:37;12.30;;;4.18;;
39860;SDS011;25529;49.346;20.886;2022-07-10T16:51:02;12.73;;;4.10;;
39860;SDS011;25529;49.346;20.886;2022-07-10T16:53:27;9.50;;;3.80;;
39860;SDS011;25529;49.346;20.886;2022-07-10T16:55:53;11.30;;;4.20;;
39860;SDS011;25529;49.346;20.886;2022-07-10T16:58:19;10.75;;;4.00;;
39860;SDS011;25529;49.346;20.886;2022-07-10T17:00:44;12.95;;;4.25;;
39860;SDS011;25529;49.346;20.886;2022-07-10T17:03:10;12.15;;;3.80;;
39860;SDS011;25529;49.346;20.886;2022-07-10T17:05:35;16.20;;;4.47;;
39860;SDS011;25529;49.346;20.886;2022-07-10T17:08:01;16.30;;;5.30;;
39860;SDS011;25529;49.346;20.886;2022-07-10T17:10:26;16.13;;;5.13;;
39860;SDS011;25529;49.346;20.886;2022-07-10T17:12:52;14.82;;;4.65;;
39860;SDS011;25529;49.346;20.886;2022-07-10T17:15:17;14.15;;;5.00;;
39860;SDS011;25529;49.346;20.886;2022-07-10T17:17:43;18.83;;;5.72;;
39860;SDS011;25529;49.346;20.886;2022-07-10T17:20:09;15.15;;;5.32;;
39860;SDS011;25529;49.346;20.886;2022-07-10T17:22:35;13.23;;;5.03;;
39860;SDS011;25529;49.346;20.886;2022-07-10T17:25:00;11.55;;;4.25;;
39860;SDS011;25529;49.346;20.886;2022-07-10T17:27:25;10.57;;;4.13;;
39860;SDS011;25529;49.346;20.886;2022-07-10T17:29:51;12.88;;;4.35;;
39860;SDS011;25529;49.346;20.886;2022-07-10T17:32:17;14.50;;;4.65;;
39860;SDS011;25529;49.346;20.886;2022-07-10T17:34:42;18.35;;;4.63;;
39860;SDS011;25529;49.346;20.886;2022-07-10T17:37:08;13.43;;;4.20;;
39860;SDS011;25529;49.346;20.886;2022-07-10T17:39:33;9.98;;;3.83;;
39860;SDS011;25529;49.346;20.886;2022-07-10T17:41:59;11.90;;;3.70;;
39860;SDS011;25529;49.346;20.886;2022-07-10T17:44:24;8.85;;;3.88;;
39860;SDS011;25529;49.346;20.886;2022-07-10T17:46:50;17.10;;;6.15;;
39860;SDS011;25529;49.346;20.886;2022-07-10T17:49:15;20.48;;;6.68;;
39860;SDS011;25529;49.346;20.886;2022-07-10T17:51:41;15.18;;;5.38;;
39860;SDS011;25529;49.346;20.886;2022-07-10T17:54:06;15.65;;;5.45;;
39860;SDS011;25529;49.346;20.886;2022-07-10T17:56:31;12.45;;;4.72;;
39860;SDS011;25529;49.346;20.886;2022-07-10T17:58:57;15.35;;;4.78;;
39860;SDS011;25529;49.346;20.886;2022-07-10T18:01:22;16.33;;;5.40;;
39860;SDS011;25529;49.346;20.886;2022-07-10T18:03:48;14.48;;;4.55;;
39860;SDS011;25529;49.346;20.886;2022-07-10T18:06:13;12.45;;;4.38;;
39860;SDS011;25529;49.346;20.886;2022-07-10T18:08:39;7.53;;;3.50;;
39860;SDS011;25529;49.346;20.886;2022-07-10T18:11:13;11.25;;;3.55;;
39860;SDS011;25529;49.346;20.886;2022-07-10T18:13:39;7.07;;;3.45;;
39860;SDS011;25529;49.346;20.886;2022-07-10T18:16:05;8.13;;;3.60;;
39860;SDS011;25529;49.346;20.886;2022-07-10T18:18:46;9.00;;;3.85;;
39860;SDS011;25529;49.346;20.886;2022-07-10T18:21:12;10.45;;;4.20;;
39860;SDS011;25529;49.346;20.886;2022-07-10T18:23:39;9.77;;;4.03;;
39860;SDS011;25529;49.346;20.886;2022-07-10T18:26:05;9.25;;;3.80;;
39860;SDS011;25529;49.346;20.886;2022-07-10T18:28:31;11.20;;;4.78;;
39860;SDS011;25529;49.346;20.886;2022-07-10T18:30:57;14.20;;;4.95;;
39860;SDS011;25529;49.346;20.886;2022-07-10T18:33:23;15.65;;;5.53;;
39860;SDS011;25529;49.346;20.886;2022-07-10T18:36:07;17.67;;;5.55;;
39860;SDS011;25529;49.346;20.886;2022-07-10T18:38:32;17.45;;;5.30;;
39860;SDS011;25529;49.346;20.886;2022-07-10T18:41:01;15.00;;;5.00;;
39860;SDS011;25529;49.346;20.886;2022-07-10T18:43:27;14.45;;;5.07;;
39860;SDS011;25529;49.346;20.886;2022-07-10T18:45:53;11.93;;;4.63;;
39860;SDS011;25529;49.346;20.886;2022-07-10T18:48:18;15.07;;;4.32;;
39860;SDS011;25529;49.346;20.886;2022-07-10T18:50:43;11.80;;;4.30;;
39860;SDS011;25529;49.346;20.886;2022-07-10T18:53:09;8.13;;;4.05;;
39860;SDS011;25529;49.346;20.886;2022-07-10T18:55:34;12.18;;;4.10;;
39860;SDS011;25529;49.346;20.886;2022-07-10T18:57:59;12.57;;;4.18;;
39860;SDS011;25529;49.346;20.886;2022-07-10T19:00:25;10.60;;;4.35;;
39860;SDS011;25529;49.346;20.886;2022-07-10T19:02:50;14.35;;;5.38;;
39860;SDS011;25529;49.346;20.886;2022-07-10T19:05:16;18.25;;;5.90;;
39860;SDS011;25529;49.346;20.886;2022-07-10T19:07:41;13.75;;;4.93;;
39860;SDS011;25529;49.346;20.886;2022-07-10T19:10:07;14.80;;;5.07;;
39860;SDS011;25529;49.346;20.886;2022-07-10T19:12:33;20.98;;;6.82;;
39860;SDS011;25529;49.346;20.886;2022-07-10T19:14:58;20.52;;;7.60;;
39860;SDS011;25529;49.346;20.886;2022-07-10T19:17:23;20.92;;;7.40;;
39860;SDS011;25529;49.346;20.886;2022-07-10T19:19:49;17.75;;;6.53;;
39860;SDS011;25529;49.346;20.886;2022-07-10T19:22:14;19.35;;;5.95;;
39860;SDS011;25529;49.346;20.886;2022-07-10T19:24:40;16.60;;;5.43;;
39860;SDS011;25529;49.346;20.886;2022-07-10T19:27:05;16.73;;;5.47;;
39860;SDS011;25529;49.346;20.886;2022-07-10T19:29:32;14.57;;;5.18;;
39860;SDS011;25529;49.346;20.886;2022-07-10T19:31:57;22.50;;;8.93;;
39860;SDS011;25529;49.346;20.886;2022-07-10T19:34:22;30.48;;;15.98;;
39860;SDS011;25529;49.346;20.886;2022-07-10T19:36:48;57.63;;;32.40;;
39860;SDS011;25529;49.346;20.886;2022-07-10T19:39:13;47.92;;;25.25;;
39860;SDS011;25529;49.346;20.886;2022-07-10T19:41:41;33.50;;;15.98;;
39860;SDS011;25529;49.346;20.886;2022-07-10T19:44:06;25.25;;;10.57;;
39860;SDS011;25529;49.346;20.886;2022-07-10T19:46:32;19.88;;;7.70;;
39860;SDS011;25529;49.346;20.886;2022-07-10T19:48:58;27.27;;;11.73;;
39860;SDS011;25529;49.346;20.886;2022-07-10T19:51:23;21.30;;;8.05;;
39860;SDS011;25529;49.346;20.886;2022-07-10T19:53:49;30.90;;;14.50;;
39860;SDS011;25529;49.346;20.886;2022-07-10T19:56:15;55.53;;;36.63;;
39860;SDS011;25529;49.346;20.886;2022-07-10T19:58:41;43.08;;;26.90;;
39860;SDS011;25529;49.346;20.886;2022-07-10T20:01:06;29.02;;;15.43;;
39860;SDS011;25529;49.346;20.886;2022-07-10T20:03:31;22.42;;;9.35;;
39860;SDS011;25529;49.346;20.886;2022-07-10T20:05:57;28.67;;;13.68;;
39860;SDS011;25529;49.346;20.886;2022-07-10T20:08:22;32.45;;;16.38;;
39860;SDS011;25529;49.346;20.886;2022-07-10T20:10:47;61.70;;;39.67;;
39860;SDS011;25529;49.346;20.886;2022-07-10T20:13:13;46.58;;;26.55;;
39860;SDS011;25529;49.346;20.886;2022-07-10T20:15:38;30.65;;;14.27;;
39860;SDS011;25529;49.346;20.886;2022-07-10T20:18:04;24.40;;;9.52;;
39860;SDS011;25529;49.346;20.886;2022-07-10T20:20:29;17.80;;;5.55;;
39860;SDS011;25529;49.346;20.886;2022-07-10T20:22:54;12.35;;;4.43;;
39860;SDS011;25529;49.346;20.886;2022-07-10T20:25:20;8.38;;;3.50;;
39860;SDS011;25529;49.346;20.886;2022-07-10T20:27:45;8.88;;;3.15;;
39860;SDS011;25529;49.346;20.886;2022-07-10T20:30:11;4.93;;;3.10;;
39860;SDS011;25529;49.346;20.886;2022-07-10T20:32:37;7.57;;;3.88;;
39860;SDS011;25529;49.346;20.886;2022-07-10T20:35:02;9.77;;;3.35;;
39860;SDS011;25529;49.346;20.886;2022-07-10T20:37:28;5.57;;;3.05;;
39860;SDS011;25529;49.346;20.886;2022-07-10T20:42:35;6.75;;;3.00;;
39860;SDS011;25529;49.346;20.886;2022-07-10T20:45:00;9.60;;;3.20;;
39860;SDS011;25529;49.346;20.886;2022-07-10T20:47:26;7.90;;;2.97;;
39860;SDS011;25529;49.346;20.886;2022-07-10T20:49:51;6.88;;;3.25;;
39860;SDS011;25529;49.346;20.886;2022-07-10T20:52:17;11.48;;;3.30;;
39860;SDS011;25529;49.346;20.886;2022-07-10T20:54:43;7.03;;;3.20;;
39860;SDS011;25529;49.346;20.886;2022-07-10T20:57:08;6.32;;;2.90;;
39860;SDS011;25529;49.346;20.886;2022-07-10T20:59:33;10.25;;;3.15;;
39860;SDS011;25529;49.346;20.886;2022-07-10T21:01:59;6.20;;;3.10;;
39860;SDS011;25529;49.346;20.886;2022-07-10T21:04:24;9.48;;;3.25;;
39860;SDS011;25529;49.346;20.886;2022-07-10T21:06:50;8.05;;;3.38;;
39860;SDS011;25529;49.346;20.886;2022-07-10T21:09:15;8.05;;;3.13;;
39860;SDS011;25529;49.346;20.886;2022-07-10T21:11:40;9.45;;;3.25;;
39860;SDS011;25529;49.346;20.886;2022-07-10T21:14:06;8.90;;;3.30;;
39860;SDS011;25529;49.346;20.886;2022-07-10T21:16:31;5.40;;;3.20;;
39860;SDS011;25529;49.346;20.886;2022-07-10T21:18:57;9.90;;;3.28;;
39860;SDS011;25529;49.346;20.886;2022-07-10T21:21:23;8.18;;;3.20;;
39860;SDS011;25529;49.346;20.886;2022-07-10T21:23:48;6.30;;;2.90;;
39860;SDS011;25529;49.346;20.886;2022-07-10T21:26:13;8.00;;;3.17;;
39860;SDS011;25529;49.346;20.886;2022-07-10T21:28:42;6.45;;;3.00;;
39860;SDS011;25529;49.346;20.886;2022-07-10T21:31:13;8.32;;;3.03;;
39860;SDS011;25529;49.346;20.886;2022-07-10T21:33:39;4.97;;;2.83;;
39860;SDS011;25529;49.346;20.886;2022-07-10T21:36:04;9.63;;;3.15;;
39860;SDS011;25529;49.346;20.886;2022-07-10T21:38:30;6.28;;;3.13;;
39860;SDS011;25529;49.346;20.886;2022-07-10T21:40:55;5.20;;;3.00;;
39860;SDS011;25529;49.346;20.886;2022-07-10T21:43:21;7.97;;;3.10;;
39860;SDS011;25529;49.346;20.886;2022-07-10T21:45:46;9.07;;;3.22;;
39860;SDS011;25529;49.346;20.886;2022-07-10T21:48:12;6.40;;;2.95;;
39860;SDS011;25529;49.346;20.886;2022-07-10T21:50:37;8.95;;;3.08;;
39860;SDS011;25529;49.346;20.886;2022-07-10T21:53:02;6.47;;;2.95;;
39860;SDS011;25529;49.346;20.886;2022-07-10T21:55:29;9.85;;;3.03;;
39860;SDS011;25529;49.346;20.886;2022-07-10T21:57:54;7.68;;;3.13;;
39860;SDS011;25529;49.346;20.886;2022-07-10T22:00:20;5.85;;;3.10;;
39860;SDS011;25529;49.346;20.886;2022-07-10T22:02:46;13.38;;;4.03;;
39860;SDS011;25529;49.346;20.886;2022-07-10T22:05:11;6.25;;;3.10;;
39860;SDS011;25529;49.346;20.886;2022-07-10T22:07:37;6.97;;;2.97;;
39860;SDS011;25529;49.346;20.886;2022-07-10T22:10:02;11.82;;;3.17;;
39860;SDS011;25529;49.346;20.886;2022-07-10T22:12:28;9.10;;;3.10;;
39860;SDS011;25529;49.346;20.886;2022-07-10T22:14:53;4.90;;;2.85;;
39860;SDS011;25529;49.346;20.886;2022-07-10T22:17:19;6.00;;;3.03;;
39860;SDS011;25529;49.346;20.886;2022-07-10T22:19:45;5.82;;;3.05;;
39860;SDS011;25529;49.346;20.886;2022-07-10T22:22:10;9.60;;;3.10;;
39860;SDS011;25529;49.346;20.886;2022-07-10T22:24:36;7.47;;;3.10;;
39860;SDS011;25529;49.346;20.886;2022-07-10T22:27:01;5.55;;;2.78;;
39860;SDS011;25529;49.346;20.886;2022-07-10T22:29:27;9.15;;;3.33;;
39860;SDS011;25529;49.346;20.886;2022-07-10T22:31:52;6.88;;;2.85;;
39860;SDS011;25529;49.346;20.886;2022-07-10T22:34:18;6.00;;;3.10;;
39860;SDS011;25529;49.346;20.886;2022-07-10T22:36:44;7.88;;;3.05;;
39860;SDS011;25529;49.346;20.886;2022-07-10T22:39:10;9.50;;;3.20;;
39860;SDS011;25529;49.346;20.886;2022-07-10T22:41:35;10.05;;;3.10;;
39860;SDS011;25529;49.346;20.886;2022-07-10T22:44:00;7.35;;;3.20;;
39860;SDS011;25529;49.346;20.886;2022-07-10T22:46:26;8.18;;;3.00;;
39860;SDS011;25529;49.346;20.886;2022-07-10T22:48:52;6.43;;;3.20;;
39860;SDS011;25529;49.346;20.886;2022-07-10T22:51:18;6.45;;;3.20;;
39860;SDS011;25529;49.346;20.886;2022-07-10T22:53:43;6.05;;;2.90;;
39860;SDS011;25529;49.346;20.886;2022-07-10T22:56:08;8.60;;;3.45;;
39860;SDS011;25529;49.346;20.886;2022-07-10T22:58:34;5.80;;;3.08;;
39860;SDS011;25529;49.346;20.886;2022-07-10T23:00:59;6.13;;;3.10;;
39860;SDS011;25529;49.346;20.886;2022-07-10T23:03:25;5.07;;;3.00;;
39860;SDS011;25529;49.346;20.886;2022-07-10T23:05:52;4.45;;;2.67;;
39860;SDS011;25529;49.346;20.886;2022-07-10T23:08:18;7.72;;;3.15;;
39860;SDS011;25529;49.346;20.886;2022-07-10T23:10:43;6.55;;;3.15;;
39860;SDS011;25529;49.346;20.886;2022-07-10T23:13:10;6.53;;;3.10;;
39860;SDS011;25529;49.346;20.886;2022-07-10T23:15:36;6.30;;;3.15;;
39860;SDS011;25529;49.346;20.886;2022-07-10T23:18:01;5.75;;;3.10;;
39860;SDS011;25529;49.346;20.886;2022-07-10T23:20:27;6.22;;;3.30;;
39860;SDS011;25529;49.346;20.886;2022-07-10T23:22:52;10.23;;;3.35;;
39860;SDS011;25529;49.346;20.886;2022-07-10T23:25:17;7.75;;;3.10;;
39860;SDS011;25529;49.346;20.886;2022-07-10T23:27:43;6.80;;;2.95;;
39860;SDS011;25529;49.346;20.886;2022-07-10T23:30:09;6.85;;;3.50;;
39860;SDS011;25529;49.346;20.886;2022-07-10T23:32:35;7.43;;;3.00;;
39860;SDS011;25529;49.346;20.886;2022-07-10T23:35:00;8.13;;;3.00;;
39860;SDS011;25529;49.346;20.886;2022-07-10T23:37:26;9.15;;;3.22;;
39860;SDS011;25529;49.346;20.886;2022-07-10T23:39:52;8.50;;;2.97;;
39860;SDS011;25529;49.346;20.886;2022-07-10T23:42:18;5.93;;;2.88;;
39860;SDS011;25529;49.346;20.886;2022-07-10T23:44:43;5.20;;;3.10;;
39860;SDS011;25529;49.346;20.886;2022-07-10T23:47:08;7.45;;;3.17;;
39860;SDS011;25529;49.346;20.886;2022-07-10T23:49:34;6.57;;;3.10;;
39860;SDS011;25529;49.346;20.886;2022-07-10T23:52:19;6.60;;;2.95;;
39860;SDS011;25529;49.346;20.886;2022-07-10T23:54:44;7.15;;;3.10;;
39860;SDS011;25529;49.346;20.886;2022-07-10T23:57:28;5.07;;;3.00;;
39860;SDS011;25529;49.346;20.886;2022-07-10T23:59:53;13.73;;;3.67;;
